createdAt,value
2022-08-20T00:02:44.341Z,71.75
2022-08-20T00:05:56.741Z,70.53
2022-08-20T00:08:59.514Z,70.90
2022-08-20T00:12:02.592Z,69.49
2022-08-20T00:15:06.880Z,68.94
2022-08-20T00:18:10.064Z,67.71
2022-08-20T00:21:19.123Z,67.36
2022-08-20T00:24:22.373Z,67.99
2022-08-20T00:27:25.117Z,67.93
2022-08-20T00:30:28.143Z,68.19
2022-08-20T00:33:31.473Z,68.50
2022-08-20T00:36:34.440Z,69.94
2022-08-20T00:39:37.229Z,69.99
2022-08-20T00:42:50.172Z,71.00
2022-08-20T00:45:56.369Z,71.62
2022-08-20T00:49:02.269Z,71.68
2022-08-20T00:52:14.097Z,71.14
2022-08-20T00:55:19.965Z,71.40
2022-08-20T00:58:23.083Z,72.06
2022-08-20T01:01:26.204Z,72.13
2022-08-20T01:04:33.690Z,71.92
2022-08-20T01:07:38.153Z,72.35
2022-08-20T01:10:44.879Z,72.83
2022-08-20T01:13:48.683Z,73.69
2022-08-20T01:16:56.848Z,74.07
2022-08-20T01:20:06.489Z,74.50
2022-08-20T01:23:27.205Z,74.46
2022-08-20T01:26:39.796Z,73.65
2022-08-20T01:29:42.584Z,72.86
2022-08-20T01:32:45.568Z,73.52
2022-08-20T01:35:50.330Z,73.78
2022-08-20T01:38:54.926Z,73.43
2022-08-20T01:42:19.622Z,73.03
2022-08-20T01:45:26.865Z,74.48
2022-08-20T01:48:30.566Z,73.98
2022-08-20T01:51:33.493Z,74.63
2022-08-20T01:54:36.308Z,75.33
2022-08-20T01:57:40.003Z,75.02
2022-08-20T02:00:43.267Z,74.92
2022-08-20T02:03:46.303Z,75.64
2022-08-20T02:06:56.734Z,75.55
2022-08-20T02:10:00.322Z,75.38
2022-08-20T02:13:05.628Z,76.19
2022-08-20T02:16:08.817Z,76.82
2022-08-20T02:19:16.749Z,76.49
2022-08-20T02:22:26.115Z,76.48
2022-08-20T02:25:32.461Z,77.06
2022-08-20T02:28:35.631Z,77.41
2022-08-20T02:32:23.466Z,77.67
2022-08-20T02:35:05.950Z,79.07
2022-08-20T02:38:10.033Z,79.33
2022-08-20T02:41:13.511Z,78.25
2022-08-20T02:44:20.528Z,78.72
2022-08-20T02:47:23.645Z,79.32
2022-08-20T02:50:27.640Z,78.94
2022-08-20T02:53:39.408Z,78.07
2022-08-20T02:56:42.432Z,78.60
2022-08-20T02:59:47.418Z,78.23
2022-08-20T03:02:50.566Z,79.29
2022-08-20T03:05:57.591Z,78.46
2022-08-20T03:09:00.912Z,76.77
2022-08-20T03:12:05.116Z,77.03
2022-08-20T03:15:17.631Z,78.45
2022-08-20T03:18:22.699Z,78.67
2022-08-20T03:21:26.624Z,77.94
2022-08-20T03:24:29.408Z,78.12
2022-08-20T03:27:36.515Z,78.19
2022-08-20T03:30:39.514Z,77.47
2022-08-20T03:33:48.936Z,79.56
2022-08-20T03:36:56.332Z,80.37
2022-08-20T03:39:59.555Z,79.43
2022-08-20T03:43:02.407Z,80.05
2022-08-20T03:46:05.497Z,80.37
2022-08-20T03:49:25.032Z,79.43
2022-08-20T03:52:29.816Z,79.11
2022-08-20T03:55:32.619Z,79.78
2022-08-20T03:58:36.629Z,78.54
2022-08-20T04:01:46.281Z,78.25
2022-08-20T04:04:49.819Z,78.14
2022-08-20T04:07:52.641Z,77.14
2022-08-20T04:10:57.804Z,77.99
2022-08-20T04:14:00.468Z,77.79
2022-08-20T04:17:09.980Z,77.48
2022-08-20T04:20:15.833Z,78.28
2022-08-20T04:23:19.296Z,77.57
2022-08-20T04:26:22.437Z,77.08
2022-08-20T04:29:26.267Z,77.76
2022-08-20T04:32:36.908Z,78.47
2022-08-20T04:35:41.304Z,77.71
2022-08-20T04:38:49.893Z,77.43
2022-08-20T04:41:53.911Z,77.75
2022-08-20T04:44:56.633Z,76.39
2022-08-20T04:48:05.700Z,76.11
2022-08-20T04:51:10.133Z,76.04
2022-08-20T04:54:14.690Z,76.35
2022-08-20T04:57:17.335Z,74.70
2022-08-20T05:00:20.321Z,75.53
2022-08-20T05:03:23.877Z,76.39
2022-08-20T05:06:30.624Z,76.12
2022-08-20T05:09:43.649Z,76.96
2022-08-20T05:12:56.470Z,77.09
2022-08-20T05:16:02.045Z,77.26
2022-08-20T05:19:06.897Z,77.05
2022-08-20T05:22:10.178Z,76.70
2022-08-20T05:25:13.275Z,77.13
2022-08-20T05:28:22.888Z,76.91
2022-08-20T05:31:32.467Z,76.70
2022-08-20T05:34:36.684Z,77.61
2022-08-20T05:37:43.608Z,77.53
2022-08-20T05:40:47.615Z,77.63
2022-08-20T05:43:51.623Z,77.62
2022-08-20T05:46:54.396Z,77.10
2022-08-20T05:49:57.536Z,77.77
2022-08-20T05:53:01.557Z,77.75
2022-08-20T06:09:31.158Z,79.87
2022-08-20T07:40:02.462Z,82.35
2022-08-20T07:43:05.997Z,83.46
2022-08-20T07:46:13.347Z,82.49
2022-08-20T07:49:16.303Z,80.38
2022-08-20T07:52:19.053Z,79.74
2022-08-20T07:55:22.151Z,79.16
2022-08-20T07:58:33.164Z,79.46
2022-08-20T08:01:36.783Z,80.28
2022-08-20T08:04:40.057Z,79.56
2022-08-20T08:07:43.179Z,78.29
2022-08-20T08:10:52.789Z,79.71
2022-08-20T08:14:05.447Z,77.88
2022-08-20T08:17:09.937Z,78.03
2022-08-20T08:20:13.326Z,78.17
2022-08-20T08:23:24.528Z,78.20
2022-08-20T08:26:34.090Z,77.29
2022-08-20T08:29:37.861Z,78.02
2022-08-20T08:33:03.133Z,76.49
2022-08-20T08:36:12.065Z,77.31
2022-08-20T08:39:14.900Z,76.14
2022-08-20T08:42:44.067Z,76.20
2022-08-20T08:45:52.125Z,77.73
2022-08-20T08:48:58.084Z,78.90
2022-08-20T08:52:11.950Z,78.91
2022-08-20T08:55:19.387Z,79.39
2022-08-20T08:58:22.490Z,79.78
2022-08-20T09:01:55.423Z,80.99
2022-08-20T09:04:51.576Z,80.10
2022-08-20T09:07:54.896Z,81.36
2022-08-20T09:11:02.677Z,81.26
2022-08-20T09:14:05.625Z,82.48
2022-08-20T09:17:08.393Z,82.95
2022-08-20T09:20:12.099Z,83.40
2022-08-20T09:23:14.813Z,83.42
2022-08-20T09:26:17.932Z,83.40
2022-08-20T09:29:20.595Z,84.83
2022-08-20T09:32:24.996Z,85.71
2022-08-20T09:35:29.157Z,85.09
2022-08-20T09:38:32.824Z,85.08
2022-08-20T09:41:35.681Z,86.10
2022-08-20T09:44:39.528Z,85.72
2022-08-20T09:47:54.783Z,84.89
2022-08-20T09:51:00.316Z,85.19
2022-08-20T09:54:03.008Z,85.76
2022-08-20T09:57:09.582Z,87.53
2022-08-20T10:00:12.891Z,86.79
2022-08-20T10:03:16.236Z,86.42
2022-08-20T10:06:20.553Z,86.92
2022-08-20T10:09:23.635Z,86.38
2022-08-20T10:12:26.972Z,85.33
2022-08-20T10:15:30.309Z,87.27
2022-08-20T10:18:34.607Z,88.69
2022-08-20T10:21:39.136Z,87.25
2022-08-20T10:24:42.784Z,88.70
2022-08-20T10:27:45.668Z,87.70
2022-08-20T10:30:48.598Z,87.75
2022-08-20T10:33:51.274Z,87.10
2022-08-20T10:36:54.282Z,86.23
2022-08-20T10:39:57.731Z,85.74
2022-08-20T10:43:00.811Z,86.73
2022-08-20T10:46:03.997Z,85.90
2022-08-20T10:49:06.959Z,85.90
2022-08-20T10:52:09.622Z,85.37
2022-08-20T10:55:13.328Z,86.04
2022-08-20T10:58:16.014Z,87.46
2022-08-20T11:01:28.741Z,88.20
2022-08-20T11:04:36.460Z,87.91
2022-08-20T11:07:50.635Z,88.30
2022-08-20T11:10:58.977Z,87.92
2022-08-20T11:14:01.971Z,88.14
2022-08-20T11:17:05.326Z,90.99
2022-08-20T11:20:10.819Z,90.48
2022-08-20T11:23:13.697Z,91.20
2022-08-20T11:26:22.331Z,87.97
2022-08-20T11:29:24.951Z,86.82
2022-08-20T11:32:28.008Z,87.03
2022-08-20T11:35:49.977Z,86.98
2022-08-20T11:38:53.262Z,85.80
2022-08-20T11:41:55.922Z,84.75
2022-08-20T11:44:58.859Z,85.62
2022-08-20T11:48:01.570Z,84.95
2022-08-20T11:51:05.321Z,82.39
2022-08-20T11:54:07.936Z,82.41
2022-08-20T11:57:11.462Z,82.37
2022-08-20T12:00:22.174Z,83.10
2022-08-20T12:03:36.700Z,81.34
2022-08-20T12:06:39.434Z,79.79
2022-08-20T12:09:50.397Z,79.36
2022-08-20T12:12:55.611Z,76.59
2022-08-20T12:15:59.820Z,76.96
2022-08-20T12:19:02.452Z,77.39
2022-08-20T12:22:24.756Z,76.01
2022-08-20T12:25:28.159Z,74.96
2022-08-20T12:28:32.382Z,72.09
2022-08-20T12:31:35.001Z,74.94
2022-08-20T12:34:40.971Z,74.30
2022-08-20T12:37:44.819Z,74.54
2022-08-20T12:40:47.926Z,74.05
2022-08-20T12:43:50.525Z,76.40
2022-08-20T12:47:07.892Z,75.82
2022-08-20T12:50:31.939Z,74.37
2022-08-20T12:53:35.137Z,74.62
2022-08-20T12:56:37.755Z,72.09
2022-08-20T12:59:41.126Z,73.01
2022-08-20T13:02:43.736Z,72.08
2022-08-20T13:05:46.927Z,73.34
2022-08-20T13:08:49.540Z,71.60
2022-08-20T13:11:52.759Z,71.70
2022-08-20T13:14:55.459Z,70.26
2022-08-20T13:18:01.314Z,69.21
2022-08-20T13:21:04.036Z,68.92
2022-08-20T13:24:07.104Z,67.27
2022-08-20T13:27:15.355Z,67.97
2022-08-20T13:30:19.819Z,68.20
2022-08-20T13:33:22.505Z,69.34
2022-08-20T13:36:26.023Z,67.88
2022-08-20T13:39:28.982Z,67.50
2022-08-20T13:42:31.995Z,68.43
2022-08-20T13:45:36.457Z,66.58
2022-08-20T13:48:39.645Z,66.87
2022-08-20T13:51:42.287Z,66.10
2022-08-20T13:54:45.270Z,63.47
2022-08-20T13:57:48.008Z,64.57
2022-08-20T14:00:51.248Z,64.51
2022-08-20T14:03:54.153Z,65.24
2022-08-20T14:06:56.876Z,64.40
2022-08-20T14:10:07.497Z,63.72
2022-08-20T14:13:15.382Z,64.10
2022-08-20T14:16:25.449Z,62.29
2022-08-20T14:19:30.700Z,61.02
2022-08-20T14:22:36.410Z,61.98
2022-08-20T14:25:39.454Z,61.67
2022-08-20T14:28:42.543Z,60.22
2022-08-20T14:31:45.146Z,60.72
2022-08-20T14:34:48.111Z,60.92
2022-08-20T14:37:53.100Z,60.91
2022-08-20T14:40:56.061Z,61.57
2022-08-20T14:43:58.684Z,60.20
2022-08-20T14:47:13.276Z,60.37
2022-08-20T14:50:30.052Z,61.15
2022-08-20T14:53:37.468Z,61.26
2022-08-20T14:56:42.918Z,61.47
2022-08-20T14:59:46.955Z,61.66
2022-08-20T15:02:49.686Z,62.38
2022-08-20T15:05:52.584Z,62.85
2022-08-20T15:08:57.284Z,63.31
2022-08-20T15:12:00.634Z,62.97
2022-08-20T15:15:15.272Z,63.49
2022-08-20T15:18:19.296Z,62.46
2022-08-20T15:21:22.073Z,62.88
2022-08-20T15:24:25.068Z,62.32
2022-08-20T15:27:27.880Z,61.19
2022-08-20T15:30:31.588Z,62.38
2022-08-20T15:33:34.365Z,61.29
2022-08-20T15:36:37.347Z,61.88
2022-08-20T15:39:45.745Z,62.55
2022-08-20T15:42:48.751Z,63.39
2022-08-20T15:45:51.334Z,63.77
2022-08-20T15:48:54.338Z,65.75
2022-08-20T15:51:57.222Z,66.29
2022-08-20T15:55:02.417Z,66.24
2022-08-20T15:58:14.948Z,68.73
2022-08-20T16:01:27.392Z,68.63
2022-08-20T16:04:49.113Z,69.87
2022-08-20T16:08:19.950Z,68.99
2022-08-20T16:11:32.035Z,68.88
2022-08-20T16:14:39.245Z,67.32
2022-08-20T16:18:06.392Z,68.78
2022-08-20T16:21:13.785Z,70.88
2022-08-20T16:24:17.175Z,69.79
2022-08-20T16:27:27.840Z,69.57
2022-08-20T16:30:47.425Z,70.74
2022-08-20T16:34:29.897Z,70.76
2022-08-20T16:37:45.176Z,70.97
2022-08-20T16:41:06.644Z,73.51
2022-08-20T16:44:31.764Z,71.61
2022-08-20T16:47:36.653Z,73.84
2022-08-20T16:51:03.571Z,73.76
2022-08-20T16:54:06.751Z,72.92
2022-08-20T16:57:12.813Z,72.90
2022-08-20T17:00:39.043Z,74.36
2022-08-20T17:03:50.673Z,74.37
2022-08-20T17:07:01.339Z,75.00
2022-08-20T17:11:12.374Z,74.79
2022-08-20T17:14:18.219Z,75.46
2022-08-20T17:17:31.829Z,75.00
2022-08-20T17:20:44.842Z,75.16
2022-08-20T17:23:56.460Z,75.85
2022-08-20T17:27:10.711Z,76.19
2022-08-20T17:30:19.883Z,77.43
2022-08-20T17:33:33.975Z,77.05
2022-08-20T17:36:46.903Z,77.48
2022-08-20T17:40:05.308Z,76.31
2022-08-20T17:43:22.042Z,75.72
2022-08-20T17:46:28.048Z,77.00
2022-08-20T17:49:39.456Z,76.90
2022-08-20T17:52:55.273Z,78.39
2022-08-20T17:56:03.056Z,78.77
2022-08-20T18:00:00.305Z,79.20
2022-08-20T18:02:49.860Z,78.84
2022-08-20T18:06:10.719Z,79.55
2022-08-20T18:09:31.193Z,79.86
2022-08-20T18:12:40.636Z,80.40
2022-08-20T18:15:56.504Z,80.20
2022-08-20T18:19:42.108Z,80.27
2022-08-20T18:23:11.810Z,80.30
2022-08-20T18:26:19.033Z,80.47
2022-08-20T18:29:27.561Z,80.49
2022-08-20T18:32:35.584Z,80.62
2022-08-20T18:35:45.886Z,80.58
2022-08-20T18:39:23.349Z,80.38
2022-08-20T18:42:31.259Z,81.49
2022-08-20T18:45:36.531Z,81.83
2022-08-20T18:48:51.132Z,81.51
2022-08-20T18:51:54.087Z,81.21
2022-08-20T18:55:00.103Z,81.89
2022-08-20T18:58:09.687Z,81.92
2022-08-20T19:01:14.176Z,81.90
2022-08-20T19:04:23.687Z,82.05
2022-08-20T19:07:43.268Z,81.79
2022-08-20T19:11:13.212Z,81.80
2022-08-20T19:14:34.545Z,82.30
2022-08-20T19:17:40.273Z,82.99
2022-08-20T19:20:54.436Z,83.71
2022-08-20T19:24:01.498Z,82.72
2022-08-20T19:27:07.639Z,83.45
2022-08-20T19:30:13.567Z,83.20
2022-08-20T19:33:26.716Z,83.26
2022-08-20T19:36:33.413Z,83.77
2022-08-20T19:39:37.116Z,83.86
2022-08-20T19:42:43.254Z,83.32
2022-08-20T19:45:50.308Z,83.70
2022-08-20T19:49:12.366Z,83.83
2022-08-20T19:52:27.347Z,83.53
2022-08-20T19:55:41.212Z,83.64
2022-08-20T19:58:45.252Z,83.71
2022-08-20T20:01:58.806Z,84.22
2022-08-20T20:05:06.486Z,84.21
2022-08-20T20:08:11.579Z,85.26
2022-08-20T20:11:20.817Z,84.77
2022-08-20T20:14:32.661Z,84.37
2022-08-20T20:17:36.761Z,84.68
2022-08-20T20:20:57.728Z,84.86
2022-08-20T20:24:01.908Z,84.45
2022-08-20T20:27:22.206Z,84.99
2022-08-20T20:30:33.564Z,84.96
2022-08-20T20:33:44.099Z,84.53
2022-08-20T20:36:48.009Z,84.49
2022-08-20T20:40:00.709Z,84.26
2022-08-20T20:43:09.067Z,84.16
2022-08-20T20:46:24.600Z,84.18
2022-08-20T20:49:30.698Z,84.73
2022-08-20T20:52:36.952Z,85.02
2022-08-20T20:55:41.906Z,84.16
2022-08-20T20:58:45.126Z,84.55
2022-08-20T21:01:57.516Z,84.48
2022-08-20T21:05:00.344Z,84.85
2022-08-20T21:08:06.263Z,84.58
2022-08-20T21:11:11.424Z,84.13
2022-08-20T21:14:14.900Z,84.55
2022-08-20T21:17:21.994Z,84.97
2022-08-20T21:20:25.573Z,85.10
2022-08-20T21:23:40.209Z,85.40
2022-08-20T21:26:45.525Z,84.97
2022-08-20T21:29:48.604Z,85.11
2022-08-20T21:32:51.911Z,85.12
2022-08-20T21:35:54.993Z,84.37
2022-08-20T21:38:58.295Z,84.23
2022-08-20T21:42:03.145Z,83.47
2022-08-20T21:45:13.895Z,83.72
2022-08-20T21:48:21.061Z,83.88
2022-08-20T21:51:24.081Z,84.02
2022-08-20T21:54:27.125Z,83.81
2022-08-20T21:57:33.315Z,84.14
2022-08-20T22:00:47.924Z,84.70
2022-08-20T22:03:51.905Z,84.89
2022-08-20T22:06:55.095Z,84.68
2022-08-20T22:09:58.021Z,84.11
2022-08-20T22:13:00.706Z,84.62
2022-08-20T22:16:18.467Z,85.02
2022-08-20T22:19:21.188Z,86.05
2022-08-20T22:22:24.271Z,86.75
2022-08-20T22:25:26.934Z,87.84
2022-08-20T22:28:29.950Z,88.89
2022-08-20T22:31:36.150Z,88.12
2022-08-20T22:34:39.184Z,87.27
2022-08-20T22:37:41.828Z,87.01
2022-08-20T22:40:45.475Z,86.22
2022-08-20T22:43:56.876Z,85.54
2022-08-20T22:47:05.019Z,85.00
2022-08-20T22:50:10.231Z,85.54
2022-08-20T22:53:14.684Z,85.48
2022-08-20T22:56:19.824Z,85.28
2022-08-20T22:59:25.398Z,85.70
2022-08-20T23:02:28.017Z,85.37
2022-08-20T23:05:33.599Z,84.86
2022-08-20T23:08:36.679Z,85.06
2022-08-20T23:11:39.639Z,85.90
2022-08-20T23:14:42.256Z,86.18
2022-08-20T23:17:45.714Z,85.57
2022-08-20T23:20:56.305Z,85.84
2022-08-20T23:23:59.275Z,86.28
2022-08-20T23:27:02.179Z,86.12
2022-08-20T23:30:05.778Z,86.75
2022-08-20T23:33:08.538Z,86.06
2022-08-20T23:36:13.675Z,86.19
2022-08-20T23:39:16.512Z,85.76
2022-08-20T23:42:19.471Z,85.32
2022-08-20T23:45:22.512Z,85.92
2022-08-20T23:48:26.508Z,85.77
2022-08-20T23:51:29.306Z,85.35
2022-08-20T23:54:32.969Z,85.97
2022-08-20T23:57:36.113Z,85.43
